Time;durP1;ratioP1;P1;durP2;ratioP2;P2;SDS_P1;SDS_P2;PMS_P1;PMS_P2;Temp;Humidity;BMP_temperature;BMP_pressure;BME280_temperature;BME280_humidity;BME280_pressure;Samples;Min_cycle;Max_cycle;Signal;HPM_P1;HPM_P2
2023/01/28 00:00:14;;;;;;;1.35;0.90;;;;;;;17.01;47.03;103122.75;4813095;29;20038;-77
2023/01/28 00:02:42;;;;;;;1.63;1.00;;;;;;;16.99;47.06;103129.63;4815574;29;20116;-78
2023/01/28 00:05:08;;;;;;;1.38;0.90;;;;;;;16.99;46.90;103127.03;4846875;29;20042;-78
2023/01/28 00:07:33;;;;;;;1.55;0.80;;;;;;;17.00;47.00;103120.97;4830244;29;20088;-77
2023/01/28 00:09:58;;;;;;;1.73;0.80;;;;;;;16.98;47.16;103114.84;4829674;29;20486;-78
2023/01/28 00:12:24;;;;;;;1.08;0.75;;;;;;;16.99;46.92;103116.63;4829988;29;20149;-77
2023/01/28 00:14:50;;;;;;;1.83;0.77;;;;;;;16.97;46.97;103106.16;4829997;29;20061;-78
2023/01/28 00:17:15;;;;;;;1.60;0.80;;;;;;;16.98;47.02;103102.72;4845473;29;20454;-78
2023/01/28 00:19:40;;;;;;;1.35;0.70;;;;;;;16.97;46.85;103100.09;4830151;29;20038;-77
2023/01/28 00:22:06;;;;;;;1.67;0.80;;;;;;;16.98;46.89;103107.03;4845547;29;20049;-78
2023/01/28 00:24:31;;;;;;;2.38;0.98;;;;;;;16.98;47.14;103100.13;4829464;29;20490;-78
2023/01/28 00:26:57;;;;;;;1.30;0.70;;;;;;;16.95;47.04;103089.63;4830179;29;20077;-77
2023/01/28 00:29:22;;;;;;;1.60;0.77;;;;;;;16.95;47.12;103107.84;4845266;29;20520;-78
2023/01/28 00:31:47;;;;;;;1.63;0.90;;;;;;;16.94;46.85;103102.59;4845370;29;20046;-78
2023/01/28 00:34:13;;;;;;;1.52;0.70;;;;;;;16.94;46.87;103106.09;4829794;29;20145;-77
2023/01/28 00:36:38;;;;;;;1.05;0.70;;;;;;;16.95;46.84;103106.97;4814693;29;20046;-77
2023/01/28 00:39:05;;;;;;;1.02;0.70;;;;;;;16.94;46.86;103106.09;4829826;29;20049;-77
2023/01/28 00:41:31;;;;;;;1.88;0.80;;;;;;;16.94;46.96;103106.09;4846195;29;20071;-76
2023/01/28 00:43:56;;;;;;;1.13;0.52;;;;;;;16.95;46.85;103104.38;4814444;29;20081;-77
2023/01/28 00:46:25;;;;;;;1.05;0.60;;;;;;;16.94;46.95;103113.91;4829682;29;20099;-77
2023/01/28 00:48:50;;;;;;;1.08;0.52;;;;;;;16.93;46.79;103108.66;4829262;29;20489;-76
2023/01/28 00:51:18;;;;;;;1.75;0.85;;;;;;;16.94;46.89;103113.00;4845007;29;20090;-76
2023/01/28 00:53:44;;;;;;;1.92;0.80;;;;;;;16.93;46.71;103108.66;4814391;29;20057;-76
2023/01/28 00:56:13;;;;;;;1.52;0.55;;;;;;;16.92;46.83;103097.38;4829553;29;20042;-77
2023/01/28 00:58:41;;;;;;;2.20;0.68;;;;;;;16.92;46.95;103099.97;4829433;29;20124;-77
2023/01/28 01:01:11;;;;;;;0.93;0.55;;;;;;;16.90;46.59;103104.25;4829292;29;20045;-76
2023/01/28 01:03:37;;;;;;;0.90;0.60;;;;;;;16.88;46.88;103100.72;4846039;29;20491;-76
2023/01/28 01:06:03;;;;;;;1.30;0.60;;;;;;;16.91;46.78;103102.50;4814573;29;20439;-76
2023/01/28 01:08:33;;;;;;;1.63;0.70;;;;;;;16.91;46.89;103098.19;4845931;29;20078;-76
2023/01/28 01:11:03;;;;;;;3.35;0.90;;;;;;;16.91;46.80;103097.31;4814284;29;20057;-76
2023/01/28 01:13:30;;;;;;;1.13;0.60;;;;;;;16.91;46.80;103103.38;4814445;29;20520;-76
2023/01/28 01:16:11;;;;;;;1.60;0.80;;;;;;;16.89;46.84;103097.25;4830418;29;20493;-76
2023/01/28 01:18:40;;;;;;;1.27;0.70;;;;;;;16.90;46.99;103101.63;4830837;29;20397;-76
2023/01/28 01:21:18;;;;;;;1.40;0.68;;;;;;;16.87;46.82;103085.94;4831044;29;20037;-76
2023/01/28 01:23:44;;;;;;;0.82;0.57;;;;;;;16.88;46.74;103090.31;4833652;29;20105;-76
2023/01/28 01:26:10;;;;;;;1.38;0.60;;;;;;;16.87;46.66;103085.94;4849647;29;20484;-76
2023/01/28 01:28:36;;;;;;;0.90;0.52;;;;;;;16.87;46.61;103096.31;4832594;29;20042;-76
2023/01/28 01:31:13;;;;;;;1.00;0.63;;;;;;;16.88;46.63;103097.22;4831694;29;20045;-76
2023/01/28 01:33:42;;;;;;;1.17;0.60;;;;;;;16.86;46.66;103095.44;4831599;29;20397;-76
2023/01/28 01:36:09;;;;;;;1.20;0.60;;;;;;;16.86;46.84;103092.84;4830543;29;20064;-76
2023/01/28 01:38:35;;;;;;;0.73;0.50;;;;;;;16.86;46.63;103098.06;4830289;29;20078;-76
2023/01/28 01:41:04;;;;;;;1.50;0.70;;;;;;;16.88;46.80;103095.50;4830076;29;20132;-76
2023/01/28 01:43:53;;;;;;;1.75;0.80;;;;;;;16.87;46.75;103096.31;4829791;29;20408;-76
2023/01/28 01:46:30;;;;;;;1.50;0.70;;;;;;;16.88;46.93;103092.03;4829806;29;20496;-77
2023/01/28 01:49:00;;;;;;;0.77;0.55;;;;;;;16.86;46.72;103089.38;4829636;29;20042;-76
2023/01/28 01:51:31;;;;;;;1.00;0.60;;;;;;;16.86;46.54;103095.44;4844827;29;20038;-76
2023/01/28 01:53:58;;;;;;;0.88;0.70;;;;;;;16.85;46.84;103096.31;4846079;29;20034;-76
2023/01/28 01:56:32;;;;;;;1.15;0.60;;;;;;;16.85;46.61;103095.41;4844521;29;20042;-76
2023/01/28 01:58:58;;;;;;;0.90;0.50;;;;;;;16.84;46.86;103097.13;4829263;29;20481;-77
2023/01/28 02:01:27;;;;;;;1.45;0.60;;;;;;;16.85;46.72;103098.00;4829270;29;20053;-76
2023/01/28 02:04:08;;;;;;;1.13;0.68;;;;;;;16.85;46.70;103100.59;4845521;29;20045;-76
2023/01/28 02:06:35;;;;;;;1.40;0.70;;;;;;;16.84;46.81;103101.44;4843985;29;20033;-76
2023/01/28 02:09:01;;;;;;;1.63;0.60;;;;;;;16.83;46.75;103107.47;4828680;29;20046;-77
2023/01/28 02:11:31;;;;;;;1.42;0.60;;;;;;;16.82;46.78;103111.78;4828252;29;20077;-76
2023/01/28 02:14:01;;;;;;;1.00;0.55;;;;;;;16.83;46.86;103110.97;4843971;29;20120;-77
2023/01/28 02:16:28;;;;;;;2.30;0.73;;;;;;;16.82;46.84;103109.19;4844909;29;20141;-76
2023/01/28 02:18:53;;;;;;;0.95;0.50;;;;;;;16.83;46.92;103097.97;4828440;29;20114;-76
2023/01/28 02:21:28;;;;;;;0.80;0.50;;;;;;;16.83;46.75;103097.97;4844398;29;20046;-76
2023/01/28 02:24:22;;;;;;;1.45;0.60;;;;;;;16.84;47.08;103101.44;4843153;29;20034;-76
2023/01/28 02:27:23;;;;;;;0.70;0.60;;;;;;;16.84;46.93;103099.72;4803726;29;20038;-76
2023/01/28 02:30:18;;;;;;;0.85;0.50;;;;;;;16.86;46.74;103099.78;4843128;29;20091;-76
2023/01/28 02:33:13;;;;;;;1.27;0.70;;;;;;;16.85;46.83;103103.19;4827954;29;20071;-76
2023/01/28 02:35:52;;;;;;;0.85;0.50;;;;;;;16.86;46.71;103112.78;4827953;29;20417;-76
2023/01/28 02:38:22;;;;;;;0.73;0.50;;;;;;;16.86;46.66;103115.38;4844324;29;20037;-76
2023/01/28 02:41:08;;;;;;;0.43;0.40;;;;;;;16.86;47.07;103111.06;4842979;29;20098;-76
2023/01/28 02:43:43;;;;;;;1.05;0.50;;;;;;;16.87;46.82;103106.72;4827818;29;20034;-77
2023/01/28 02:49:21;;;;;;;0.95;0.50;;;;;;;16.85;46.93;103114.50;4844302;29;20079;-76
2023/01/28 02:52:11;;;;;;;1.05;0.50;;;;;;;16.86;46.78;103121.47;4827611;29;20460;-77
2023/01/28 02:54:48;;;;;;;0.90;0.50;;;;;;;16.86;46.84;103113.66;4842615;29;20086;-77
2023/01/28 02:57:28;;;;;;;0.40;0.38;;;;;;;16.86;46.63;103117.97;4842762;29;20071;-76
2023/01/28 03:00:14;;;;;;;0.73;0.40;;;;;;;16.86;46.83;103117.97;4843955;29;20034;-76
2023/01/28 03:02:39;;;;;;;0.98;0.57;;;;;;;16.85;46.94;103104.09;4833106;29;20105;-81
2023/01/28 03:05:21;;;;;;;0.57;0.40;;;;;;;16.85;46.94;103098.00;4851624;29;20086;-82
2023/01/28 03:07:48;;;;;;;0.80;0.30;;;;;;;16.84;46.80;103101.44;4853526;29;20071;-82
2023/01/28 03:10:18;;;;;;;0.60;0.40;;;;;;;16.83;47.17;103100.56;4838684;29;20034;-82
2023/01/28 03:38:21;;;;;;;0.70;0.40;;;;;;;16.80;46.97;103115.19;4861233;29;20049;-82
2023/01/28 03:41:01;;;;;;;0.73;0.38;;;;;;;16.80;47.07;103117.78;4844289;29;20038;-82
2023/01/28 03:43:30;;;;;;;1.08;0.40;;;;;;;16.79;47.07;103116.00;4859088;29;20037;-82
2023/01/28 03:45:56;;;;;;;0.52;0.40;;;;;;;16.80;46.92;103123.00;4844655;29;20049;-82
2023/01/28 03:48:25;;;;;;;0.73;0.40;;;;;;;16.78;46.90;103127.22;4828159;29;20072;-76
2023/01/28 03:50:50;;;;;;;0.47;0.40;;;;;;;16.80;46.51;103133.41;4841835;29;20447;-76
2023/01/28 03:53:18;;;;;;;0.50;0.38;;;;;;;16.80;46.83;103133.41;4827076;29;20042;-76
2023/01/28 03:55:45;;;;;;;1.55;0.43;;;;;;;16.81;46.87;103135.16;4828821;29;20505;-76
2023/01/28 03:58:12;;;;;;;0.47;0.32;;;;;;;16.80;47.06;103138.59;4835327;29;20053;-76
2023/01/28 04:00:40;;;;;;;0.82;0.43;;;;;;;16.80;46.75;103133.41;4850681;29;20038;-76
2023/01/28 04:03:15;;;;;;;0.40;0.40;;;;;;;16.80;47.18;103129.06;4823658;29;20026;-82
2023/01/28 04:06:08;;;;;;;0.70;0.40;;;;;;;16.81;46.89;103124.75;4841974;29;20125;-82
2023/01/28 04:08:33;;;;;;;1.52;0.30;;;;;;;16.80;47.08;103130.78;4853034;29;20048;-82
2023/01/28 04:11:14;;;;;;;0.60;0.32;;;;;;;16.80;46.90;103131.66;4853850;29;20401;-82
2023/01/28 04:13:43;;;;;;;0.57;0.40;;;;;;;16.80;46.80;103129.06;4855499;29;20046;-82
2023/01/28 04:16:10;;;;;;;0.40;0.40;;;;;;;16.80;46.85;103131.66;4857244;29;20038;-82
2023/01/28 04:18:35;;;;;;;0.73;0.40;;;;;;;16.80;46.90;103123.88;4857860;29;20034;-82
2023/01/28 04:21:01;;;;;;;0.75;0.35;;;;;;;16.79;47.04;103118.63;4841203;29;20110;-82
2023/01/28 04:23:28;;;;;;;0.75;0.43;;;;;;;16.79;46.91;103109.09;4841025;29;20038;-82
2023/01/28 04:25:53;;;;;;;0.30;0.30;;;;;;;16.79;47.00;103108.22;4855810;29;20034;-82
2023/01/28 04:28:19;;;;;;;1.90;0.40;;;;;;;16.78;47.01;103109.91;4825233;29;20115;-82
2023/01/28 04:30:44;;;;;;;1.52;0.40;;;;;;;16.79;46.84;103118.63;4857297;29;20067;-81
2023/01/28 04:33:10;;;;;;;0.45;0.40;;;;;;;16.78;46.61;103117.72;4840590;29;20053;-82
2023/01/28 04:35:35;;;;;;;0.50;0.30;;;;;;;16.77;46.97;103115.97;4838236;29;20038;-82
2023/01/28 04:38:00;;;;;;;0.20;0.20;;;;;;;16.77;46.67;103110.75;4852903;29;20110;-82
2023/01/28 04:40:26;;;;;;;1.33;0.60;;;;;;;16.76;46.93;103111.56;4850560;29;20065;-81
2023/01/28 04:42:55;;;;;;;1.50;0.40;;;;;;;16.76;46.83;103114.19;4836681;29;20045;-82
2023/01/28 04:45:22;;;;;;;0.40;0.30;;;;;;;16.77;46.77;103121.16;4822965;29;20125;-81
2023/01/28 04:47:47;;;;;;;0.38;0.28;;;;;;;16.76;46.70;103126.31;4856395;29;20041;-82
2023/01/28 04:50:12;;;;;;;0.40;0.40;;;;;;;16.75;47.05;103133.22;4856687;29;20046;-82
2023/01/28 04:52:38;;;;;;;0.57;0.40;;;;;;;16.77;46.69;103135.88;4856935;29;20149;-82
2023/01/28 04:55:04;;;;;;;0.57;0.32;;;;;;;16.76;46.73;103131.50;4826759;29;20066;-82
2023/01/28 04:57:29;;;;;;;0.40;0.40;;;;;;;16.75;46.91;103133.22;4857196;29;20111;-81
2023/01/28 04:59:55;;;;;;;0.45;0.35;;;;;;;16.77;46.59;103135.88;4841313;29;20069;-82
2023/01/28 05:02:20;;;;;;;0.40;0.30;;;;;;;16.76;46.74;103129.78;4852480;29;20514;-82
2023/01/28 05:04:46;;;;;;;1.02;0.40;;;;;;;16.77;46.90;103130.69;4836556;29;20069;-82
2023/01/28 05:07:11;;;;;;;0.20;0.20;;;;;;;16.77;46.62;103128.97;4852983;29;20034;-83
2023/01/28 05:09:37;;;;;;;0.95;0.50;;;;;;;16.77;46.68;103123.75;4823719;29;20151;-83
2023/01/28 05:12:02;;;;;;;0.50;0.30;;;;;;;16.77;46.82;103123.75;4840029;29;20141;-83
2023/01/28 05:14:28;;;;;;;0.47;0.40;;;;;;;16.77;46.83;103126.34;4841169;29;20501;-83
2023/01/28 05:16:53;;;;;;;0.30;0.30;;;;;;;16.78;46.83;103124.63;4841120;29;20042;-83
2023/01/28 05:19:19;;;;;;;0.38;0.30;;;;;;;16.77;46.85;103125.47;4854984;29;20052;-82
2023/01/28 05:21:44;;;;;;;0.30;0.30;;;;;;;16.78;46.71;103129.84;4838369;29;20042;-82
2023/01/28 05:24:09;;;;;;;0.80;0.30;;;;;;;16.79;46.87;103126.41;4838590;29;20073;-81
2023/01/28 05:26:36;;;;;;;0.57;0.30;;;;;;;16.78;46.80;103127.22;4837883;29;20046;-82
2023/01/28 05:29:02;;;;;;;0.30;0.30;;;;;;;16.77;46.73;103123.75;4838545;29;20082;-81
2023/01/28 05:31:27;;;;;;;0.20;0.20;;;;;;;16.78;47.01;103125.50;4837430;29;20074;-82
2023/01/28 05:33:53;;;;;;;0.43;0.40;;;;;;;16.79;46.73;103131.63;4853662;29;20050;-81
2023/01/28 05:36:18;;;;;;;0.30;0.30;;;;;;;16.78;46.56;103128.09;4839224;29;20034;-82
2023/01/28 05:38:44;;;;;;;0.55;0.30;;;;;;;16.79;46.53;103131.63;4855872;29;20041;-81
2023/01/28 05:41:09;;;;;;;0.20;0.20;;;;;;;16.78;46.79;103128.09;4839406;29;20042;-82
2023/01/28 05:43:35;;;;;;;0.47;0.30;;;;;;;16.78;46.79;103120.31;4824424;29;20049;-81
2023/01/28 05:46:00;;;;;;;1.13;0.30;;;;;;;16.79;46.68;103121.22;4840025;29;20944;-82
2023/01/28 05:48:25;;;;;;;0.57;0.30;;;;;;;16.78;46.58;103122.03;4855383;29;20062;-82
2023/01/28 05:50:51;;;;;;;0.88;0.30;;;;;;;16.78;46.73;103111.63;4854096;29;20046;-82
2023/01/28 05:53:16;;;;;;;0.50;0.32;;;;;;;16.78;46.76;103112.50;4854186;29;20046;-82
2023/01/28 05:55:41;;;;;;;0.20;0.20;;;;;;;16.78;46.76;103109.91;4855891;29;20034;-82
2023/01/28 05:58:07;;;;;;;0.30;0.30;;;;;;;16.79;46.84;103118.63;4857330;29;20034;-82
2023/01/28 06:00:32;;;;;;;0.40;0.20;;;;;;;16.79;46.57;103110.81;4858526;29;20054;-82
2023/01/28 06:02:58;;;;;;;0.20;0.20;;;;;;;16.78;46.66;103107.31;4843072;29;20109;-83
2023/01/28 06:05:23;;;;;;;0.38;0.30;;;;;;;16.78;46.74;103116.84;4856835;29;20050;-82
2023/01/28 06:07:49;;;;;;;0.50;0.30;;;;;;;16.78;46.48;103125.50;4842362;29;20466;-82
2023/01/28 06:10:16;;;;;;;0.40;0.30;;;;;;;16.77;46.61;103110.75;4845646;29;20038;-82
2023/01/28 06:12:42;;;;;;;0.20;0.20;;;;;;;16.79;46.72;103110.81;4844043;29;20078;-82
2023/01/28 06:15:09;;;;;;;0.45;0.40;;;;;;;16.78;46.65;103116.84;4844359;29;20086;-83
2023/01/28 06:17:34;;;;;;;0.50;0.30;;;;;;;16.78;46.67;103103.81;4837711;29;20105;-81
2023/01/28 06:19:59;;;;;;;0.20;0.20;;;;;;;16.78;46.56;103114.22;4819953;29;20136;-81
2023/01/28 06:22:25;;;;;;;1.10;0.20;;;;;;;16.78;46.75;103122.91;4820346;29;20044;-81
2023/01/28 06:24:50;;;;;;;0.75;0.38;;;;;;;16.79;46.87;103121.22;4837758;29;20379;-82
2023/01/28 06:27:15;;;;;;;0.57;0.30;;;;;;;16.78;46.58;103117.72;4839848;29;20136;-82
2023/01/28 06:29:41;;;;;;;0.20;0.20;;;;;;;16.78;46.65;103122.91;4839250;29;20038;-82
2023/01/28 06:32:06;;;;;;;0.50;0.30;;;;;;;16.79;46.61;103129.00;4845137;29;20045;-82
2023/01/28 06:34:32;;;;;;;0.50;0.22;;;;;;;16.78;46.64;103120.31;4846883;29;20054;-82
2023/01/28 06:36:57;;;;;;;0.40;0.35;;;;;;;16.78;46.74;103127.22;4856773;29;20042;-82
2023/01/28 06:39:23;;;;;;;0.13;0.10;;;;;;;16.78;46.59;103127.22;4841944;29;20044;-82
2023/01/28 06:41:49;;;;;;;0.38;0.25;;;;;;;16.78;46.95;103124.63;4841081;29;20046;-82
2023/01/28 06:44:15;;;;;;;0.20;0.20;;;;;;;16.78;46.66;103127.22;4841890;29;20037;-82
2023/01/28 06:46:40;;;;;;;2.75;0.30;;;;;;;16.79;46.68;103129.00;4859110;29;20038;-82
2023/01/28 06:49:06;;;;;;;0.40;0.30;;;;;;;16.78;46.75;103130.72;4842652;29;20042;-82
2023/01/28 06:51:31;;;;;;;0.30;0.30;;;;;;;16.79;46.90;103129.00;4859809;29;20038;-82
2023/01/28 06:53:56;;;;;;;0.70;0.30;;;;;;;16.78;46.81;103130.72;4844755;29;20048;-82
2023/01/28 06:56:22;;;;;;;0.50;0.30;;;;;;;16.78;46.73;103129.84;4829186;29;20506;-81
2023/01/28 06:58:47;;;;;;;0.35;0.30;;;;;;;16.78;46.71;103135.03;4844360;29;20113;-82
2023/01/28 07:01:13;;;;;;;0.30;0.30;;;;;;;16.79;46.83;103132.50;4841629;29;20042;-82
2023/01/28 07:03:38;;;;;;;1.17;0.30;;;;;;;16.79;46.79;103131.63;4835879;29;20125;-81
2023/01/28 07:06:04;;;;;;;0.40;0.28;;;;;;;16.80;46.99;103136.00;4851189;29;20073;-82
2023/01/28 07:08:30;;;;;;;0.45;0.30;;;;;;;16.84;47.08;103130.06;4837693;29;20109;-82
2023/01/28 07:10:55;;;;;;;0.43;0.30;;;;;;;16.83;46.73;103136.06;4839366;29;20118;-82
2023/01/28 07:13:21;;;;;;;10.85;3.60;;;;;;;16.81;46.69;103132.53;4839679;29;20045;-83
2023/01/28 07:15:47;;;;;;;11.05;3.92;;;;;;;16.80;46.74;103131.66;4852013;29;20117;-82
2023/01/28 07:18:13;;;;;;;13.98;4.05;;;;;;;16.80;46.63;103134.28;4847497;29;20053;-81
2023/01/28 07:20:38;;;;;;;19.17;4.30;;;;;;;16.81;47.20;103149.06;4835000;29;20029;-81
2023/01/28 07:23:03;;;;;;;14.23;4.32;;;;;;;16.80;46.75;103157.69;4815042;29;20042;-80
2023/01/28 07:25:29;;;;;;;13.77;4.35;;;;;;;16.81;46.78;103161.16;4843875;29;20045;-79
2023/01/28 07:27:55;;;;;;;13.38;4.07;;;;;;;16.79;46.76;103155.00;4814784;29;20125;-79
2023/01/28 07:30:20;;;;;;;13.82;3.92;;;;;;;16.80;46.80;103146.41;4831658;29;20026;-80
2023/01/28 07:32:46;;;;;;;13.05;3.88;;;;;;;16.80;46.72;103146.41;4838539;29;20071;-81
2023/01/28 07:35:12;;;;;;;10.52;3.80;;;;;;;16.80;46.73;103160.28;4829859;29;20049;-82
2023/01/28 07:37:56;;;;;;;9.90;3.55;;;;;;;16.81;46.79;103163.75;4847640;29;20041;-82
2023/01/28 07:40:27;;;;;;;12.07;3.75;;;;;;;16.80;46.90;103156.81;4858807;29;20098;-80
2023/01/28 07:46:24;;;;;;;8.18;2.55;;;;;;;16.82;46.79;103162.94;4837453;29;20049;-82
2023/01/28 07:49:03;;;;;;;7.13;2.70;;;;;;;16.81;46.73;103163.75;4860244;29;20022;-83
2023/01/28 07:51:52;;;;;;;10.23;2.65;;;;;;;16.81;46.88;103164.66;4843777;29;20047;-83
2023/01/28 07:58:10;;;;;;;7.85;2.50;;;;;;;16.82;46.95;103173.34;4861559;29;20041;-83
2023/01/28 08:01:18;;;;;;;8.25;2.35;;;;;;;16.83;46.89;103162.09;4858166;29;20110;-83
2023/01/28 08:07:42;;;;;;;6.78;2.45;;;;;;;16.83;46.99;103181.19;4877963;29;20064;-82
2023/01/28 08:11:04;;;;;;;6.45;2.33;;;;;;;16.84;47.04;103195.94;4877581;29;20066;-82
2023/01/28 08:14:29;;;;;;;6.40;2.08;;;;;;;16.84;46.78;103188.16;4841603;29;20170;-83
2023/01/28 08:17:36;;;;;;;5.43;1.80;;;;;;;16.85;47.04;103194.22;4825053;29;20035;-83
2023/01/28 08:30:55;;;;;;;5.30;1.90;;;;;;;16.88;47.10;103201.25;4826849;29;20061;-83
2023/01/28 08:37:18;;;;;;;3.95;1.75;;;;;;;16.88;46.86;103201.25;4824662;29;20109;-84
2023/01/28 08:44:07;;;;;;;3.30;1.52;;;;;;;16.94;47.04;103217.94;4775199;30;20117;-83
2023/01/28 08:50:42;;;;;;;3.05;1.45;;;;;;;17.07;46.94;103211.34;4758386;30;20075;-83
2023/01/28 08:53:19;;;;;;;2.78;1.40;;;;;;;17.14;47.13;103215.94;4712444;30;20143;-82
2023/01/28 08:55:45;;;;;;;4.95;1.60;;;;;;;17.16;46.67;103221.16;4733150;30;20075;-82
2023/01/28 08:58:13;;;;;;;5.88;1.70;;;;;;;17.12;46.83;103221.94;4785540;29;20043;-82
2023/01/28 09:00:40;;;;;;;2.00;1.23;;;;;;;17.10;46.99;103229.69;4787090;30;20131;-82
2023/01/28 09:10:28;;;;;;;5.78;1.52;;;;;;;17.05;46.78;103239.97;4812715;29;20069;-84
2023/01/28 09:13:38;;;;;;;3.72;1.30;;;;;;;17.10;46.78;103244.41;4834313;29;20049;-83
2023/01/28 09:16:37;;;;;;;2.90;1.30;;;;;;;17.10;46.91;103247.03;4810586;29;20051;-82
2023/01/28 09:19:03;;;;;;;2.63;1.38;;;;;;;17.11;46.64;103249.66;4796351;29;20051;-80
2023/01/28 09:21:28;;;;;;;2.38;1.20;;;;;;;17.12;46.88;103245.34;4817529;29;20042;-83
2023/01/28 09:24:00;;;;;;;2.60;1.10;;;;;;;17.12;46.81;103241.03;4815226;29;20038;-84
2023/01/28 09:36:40;;;;;;;2.95;1.35;;;;;;;17.12;46.71;103250.56;4811427;29;20207;-81
2023/01/28 09:42:53;;;;;;;21.58;2.40;;;;;;;17.02;45.94;103258.06;4823559;29;20103;-80
2023/01/28 09:49:15;;;;;;;6.22;1.67;;;;;;;17.02;45.79;103268.44;4815949;29;20584;-81
2023/01/28 09:51:46;;;;;;;7.75;2.13;;;;;;;16.93;44.75;103262.97;4817162;29;20115;-81
2023/01/28 09:57:54;;;;;;;7.95;1.75;;;;;;;16.78;44.24;103263.31;4827271;29;20072;-82
2023/01/28 10:00:38;;;;;;;5.63;1.60;;;;;;;16.91;44.05;103261.16;4830798;29;20046;-81
2023/01/28 10:03:26;;;;;;;3.10;1.25;;;;;;;16.99;44.25;103259.69;4823110;29;20042;-80
2023/01/28 10:06:42;;;;;;;4.90;1.13;;;;;;;17.06;44.42;103259.03;4837567;29;20039;-82
2023/01/28 10:09:46;;;;;;;4.13;1.13;;;;;;;17.12;44.54;103259.25;4788382;30;20023;-82
2023/01/28 10:19:34;;;;;;;4.72;0.98;;;;;;;17.21;44.81;103272.53;4791852;30;20062;-82
2023/01/28 10:22:43;;;;;;;3.08;0.85;;;;;;;17.25;44.87;103269.19;4776163;30;20070;-82
2023/01/28 10:26:08;;;;;;;1.95;0.90;;;;;;;17.27;45.22;103258.81;4786208;30;20167;-82
2023/01/28 10:32:34;;;;;;;8.93;1.27;;;;;;;17.25;45.15;103232.75;4770513;30;20043;-80
2023/01/28 10:35:43;;;;;;;5.63;1.10;;;;;;;17.23;44.93;103217.94;4757360;30;20021;-83
2023/01/28 10:42:28;;;;;;;6.72;1.10;;;;;;;17.23;45.01;103205.78;4757040;30;20094;-84
2023/01/28 11:01:05;;;;;;;2.95;0.88;;;;;;;17.22;45.01;103171.91;5246579;23;20058;-85
2023/01/28 11:04:28;;;;;;;6.70;0.95;;;;;;;17.22;45.16;103161.50;4883153;29;20025;-85
2023/01/28 11:19:05;;;;;;;2.38;0.85;;;;;;;17.20;45.01;103148.47;5700662;23;20318;-80
2023/01/28 11:21:31;;;;;;;2.90;1.08;;;;;;;17.22;44.96;103151.09;4865468;29;20069;-79
2023/01/28 11:24:02;;;;;;;3.55;1.00;;;;;;;17.22;44.99;103141.59;4835065;29;20037;-79
2023/01/28 11:26:42;;;;;;;8.10;1.15;;;;;;;17.22;44.99;103141.59;4874152;29;20025;-79
2023/01/28 11:36:15;;;;;;;14.70;1.40;;;;;;;17.47;44.77;103137.94;4899094;29;20388;-81
2023/01/28 11:49:12;;;;;;;4.13;1.63;;;;;;;16.65;49.93;103191.84;4866991;29;20092;-84
2023/01/28 11:55:35;;;;;;;4.50;1.45;;;;;;;16.57;49.56;103195.03;5016725;23;20056;-85
2023/01/28 11:58:31;;;;;;;4.57;1.50;;;;;;;16.51;49.23;103195.72;4888670;29;20132;-84
2023/01/28 12:01:03;;;;;;;2.75;1.45;;;;;;;16.54;48.25;103197.53;4888372;29;20392;-84
2023/01/28 12:03:46;;;;;;;5.17;1.30;;;;;;;16.54;48.68;103198.41;4888191;29;20036;-84
2023/01/28 12:06:21;;;;;;;10.23;1.57;;;;;;;16.58;47.91;103192.50;4888364;29;20063;-83
2023/01/28 12:08:56;;;;;;;2.63;1.15;;;;;;;16.65;48.59;103185.75;4902847;29;20266;-82
2023/01/28 12:15:23;;;;;;;13.57;1.73;;;;;;;16.65;49.93;103175.38;4907172;29;20040;-85
2023/01/28 12:21:36;;;;;;;4.03;1.60;;;;;;;16.57;49.06;103143.03;4866857;29;19973;-86
2023/01/28 12:24:59;;;;;;;5.40;1.42;;;;;;;16.54;50.49;103135.16;4809060;30;20052;-87
2023/01/28 12:44:29;;;;;;;3.33;1.50;;;;;;;16.44;49.71;103085.50;5051882;23;20057;-86
2023/01/28 12:47:34;;;;;;;7.32;1.50;;;;;;;16.46;50.42;103080.31;4851509;29;20051;-86
2023/01/28 13:22:11;;;;;;;3.45;1.50;;;;;;;16.57;53.32;103093.66;5500664;23;20057;-81
2023/01/28 13:24:41;;;;;;;4.57;1.90;;;;;;;16.67;51.78;103103.50;4897466;29;20053;-81
2023/01/28 13:27:26;;;;;;;3.50;1.50;;;;;;;16.74;51.10;103107.16;4865692;29;20077;-82
2023/01/28 13:30:44;;;;;;;2.85;1.23;;;;;;;16.78;51.04;103109.91;4870136;29;20047;-81
2023/01/28 13:33:28;;;;;;;4.50;1.30;;;;;;;16.74;50.95;103100.25;4871376;29;20037;-78
2023/01/28 13:35:54;;;;;;;12.55;1.63;;;;;;;16.66;51.90;103099.16;4870647;29;20040;-79
2023/01/28 13:38:20;;;;;;;45.47;14.70;;;;;;;16.65;51.99;103094.78;4882908;29;20104;-80
2023/01/28 13:41:05;;;;;;;46.25;14.77;;;;;;;16.66;52.13;103096.56;4883797;29;20061;-81
2023/01/28 13:44:00;;;;;;;32.08;10.38;;;;;;;16.64;52.26;103090.44;4868115;29;20045;-82
2023/01/28 13:46:33;;;;;;;21.80;7.40;;;;;;;16.58;51.49;103088.50;4840866;29;20062;-83
2023/01/28 13:49:42;;;;;;;16.83;6.30;;;;;;;16.52;51.76;103096.13;4844355;29;20042;-82
2023/01/28 13:56:33;;;;;;;20.70;5.78;;;;;;;16.52;54.69;103108.22;4809760;30;20415;-82
2023/01/28 14:03:07;;;;;;;14.32;4.47;;;;;;;16.49;52.12;103110.75;4811253;30;20080;-83
2023/01/28 14:09:56;;;;;;;15.60;4.45;;;;;;;16.33;53.56;103098.97;4772875;30;20101;-81
2023/01/28 14:16:24;;;;;;;11.52;3.92;;;;;;;16.42;53.58;103089.75;4775772;30;20061;-81
2023/01/28 14:18:50;;;;;;;;;;;;;;;16.54;53.45;103086.66;4806180;29;20141;-80
2023/01/28 14:21:57;;;;;;;9.90;3.67;;;;;;;16.42;55.13;103088.88;4814513;29;19925;-81
2023/01/28 14:24:42;;;;;;;8.98;3.38;;;;;;;16.29;53.52;103078.91;4817119;29;20082;-81
2023/01/28 14:27:31;;;;;;;7.75;3.33;;;;;;;16.31;53.21;103085.94;4821316;29;20130;-81
2023/01/28 14:30:12;;;;;;;11.43;3.75;;;;;;;16.36;52.76;103089.56;4812317;29;20121;-79
2023/01/28 14:32:46;;;;;;;11.13;3.40;;;;;;;16.39;54.28;103089.66;4795923;29;20076;-80
2023/01/28 14:35:18;;;;;;;9.73;3.72;;;;;;;16.39;52.95;103102.66;4797527;29;20043;-80
2023/01/28 14:37:44;;;;;;;9.82;3.60;;;;;;;16.39;53.37;103117.34;4812871;29;20046;-80
2023/01/28 14:40:15;;;;;;;6.80;2.90;;;;;;;16.33;53.09;103120.66;4816803;29;20049;-82
2023/01/28 14:42:47;;;;;;;8.57;3.53;;;;;;;16.29;53.58;103117.88;4815620;29;20478;-80
2023/01/28 14:45:44;;;;;;;7.13;2.97;;;;;;;16.32;52.91;103110.22;4816262;29;20054;-81
2023/01/28 14:48:27;;;;;;;7.85;3.38;;;;;;;16.29;54.04;103125.69;4815734;29;20038;-80
2023/01/28 14:51:14;;;;;;;7.47;3.10;;;;;;;16.31;52.61;103130.13;4816405;29;20117;-80
2023/01/28 14:54:06;;;;;;;8.38;3.22;;;;;;;16.36;52.55;103127.66;4816668;29;20054;-81
2023/01/28 14:57:05;;;;;;;6.78;2.95;;;;;;;16.37;52.57;103126.81;4872892;29;20052;-81
2023/01/28 14:59:52;;;;;;;8.88;2.97;;;;;;;16.35;52.75;103131.09;4892732;29;20112;-82
2023/01/28 15:02:23;;;;;;;7.60;3.00;;;;;;;16.35;52.53;103125.88;4893283;29;20052;-81
2023/01/28 15:04:52;;;;;;;7.88;3.20;;;;;;;16.33;52.79;103128.47;4891303;29;20048;-80
2023/01/28 15:07:23;;;;;;;8.60;3.90;;;;;;;16.34;52.63;103143.19;4891457;29;20052;-81
2023/01/28 15:10:40;;;;;;;7.47;3.05;;;;;;;16.28;53.56;103139.53;4876368;29;20052;-81
2023/01/28 15:13:21;;;;;;;6.70;2.70;;;;;;;16.22;54.00;103135.00;4895164;29;20045;-81
2023/01/28 15:16:07;;;;;;;5.45;2.65;;;;;;;16.25;52.64;103125.59;4880637;29;20041;-82
2023/01/28 15:18:55;;;;;;;8.20;2.72;;;;;;;16.27;52.71;103114.38;4848988;29;20097;-82
2023/01/28 15:22:01;;;;;;;6.25;3.00;;;;;;;16.32;52.64;103137.06;4888580;29;20127;-81
2023/01/28 15:24:29;;;;;;;6.43;2.60;;;;;;;16.26;52.94;103144.66;4876702;29;20082;-82
2023/01/28 15:27:19;;;;;;;8.13;3.15;;;;;;;16.24;53.20;103142.03;4877572;29;20108;-82
2023/01/28 15:29:54;;;;;;;6.45;2.50;;;;;;;16.26;52.23;103129.06;4878189;29;20081;-82
2023/01/28 15:33:15;;;;;;;7.00;2.63;;;;;;;16.28;52.39;103132.59;4879603;29;20119;-82
2023/01/28 15:36:23;;;;;;;7.60;2.95;;;;;;;16.26;52.80;103131.66;4882466;29;20024;-82
2023/01/28 15:52:48;;;;;;;5.47;2.20;;;;;;;16.19;52.68;103137.50;4838118;29;20054;-81
2023/01/28 15:55:35;;;;;;;4.50;2.30;;;;;;;16.17;52.28;103141.78;4819369;29;20081;-81
2023/01/28 15:58:40;;;;;;;5.63;2.53;;;;;;;16.18;53.04;103143.56;4838309;29;20054;-81